createdAt,value
2022-11-21T00:01:25.067Z,97527.13
2022-11-21T00:03:52.215Z,97520.94
2022-11-21T00:06:20.113Z,97519.88
2022-11-21T00:08:47.370Z,97517.97
2022-11-21T00:11:14.580Z,97521.13
2022-11-21T00:13:42.377Z,97520.16
2022-11-21T00:16:15.606Z,97512.09
2022-11-21T00:18:44.101Z,97517.53
2022-11-21T00:21:15.380Z,97518.16
2022-11-21T00:23:44.273Z,97518.72
2022-11-21T00:26:12.936Z,97508.75
2022-11-21T00:28:40.437Z,97521.94
2022-11-21T00:31:07.805Z,97513.34
2022-11-21T00:33:36.861Z,97503.38
2022-11-21T00:36:08.748Z,97502.44
2022-11-21T00:38:36.502Z,97500.75
2022-11-21T00:41:03.553Z,97482.53
2022-11-21T00:43:30.427Z,97490.81
2022-11-21T00:45:58.655Z,97487.38
2022-11-21T00:48:25.611Z,97494.13
2022-11-21T00:50:52.660Z,97489.16
2022-11-21T00:53:19.585Z,97484.34
2022-11-21T00:55:46.480Z,97484.69
2022-11-21T00:58:13.418Z,97483.31
2022-11-21T01:00:40.554Z,97481.66
2022-11-21T01:03:07.562Z,97487.22
2022-11-21T01:05:34.512Z,97475.09
2022-11-21T01:08:01.481Z,97480.19
2022-11-21T01:10:28.409Z,97471.28
2022-11-21T01:12:55.354Z,97470.34
2022-11-21T01:15:22.291Z,97472.88
2022-11-21T01:17:49.302Z,97465.84
2022-11-21T01:20:16.301Z,97472.50
2022-11-21T01:22:43.290Z,97471.66
2022-11-21T01:25:10.295Z,97474.72
2022-11-21T01:27:37.214Z,97477.97
2022-11-21T01:30:04.721Z,97475.44
2022-11-21T01:32:31.694Z,97474.38
2022-11-21T01:34:58.689Z,97477.97
2022-11-21T01:37:25.709Z,97476.41
2022-11-21T01:39:52.684Z,97477.97
2022-11-21T01:42:19.608Z,97471.25
2022-11-21T01:44:51.194Z,97471.47
2022-11-21T01:47:18.240Z,97463.53
2022-11-21T01:49:47.129Z,97459.53
2022-11-21T01:52:29.619Z,97450.44
2022-11-21T01:55:08.097Z,97452.47
2022-11-21T01:57:48.214Z,97450.91
2022-11-21T02:00:21.970Z,97458.34
2022-11-21T02:03:00.783Z,97466.53
2022-11-21T02:05:31.535Z,97466.22
2022-11-21T02:08:09.480Z,97466.03
2022-11-21T02:10:40.377Z,97464.78
2022-11-21T02:13:07.978Z,97457.47
2022-11-21T02:15:34.914Z,97463.34
2022-11-21T02:18:01.872Z,97455.59
2022-11-21T02:20:29.765Z,97460.63
2022-11-21T02:23:26.360Z,97459.25
2022-11-21T02:25:54.235Z,97461.56
2022-11-21T02:28:23.670Z,97464.47
2022-11-21T02:30:50.829Z,97455.81
2022-11-21T02:33:17.822Z,97459.47
2022-11-21T02:35:44.889Z,97448.28
2022-11-21T02:38:21.415Z,97461.34
2022-11-21T02:41:18.562Z,97451.75
2022-11-21T02:43:51.458Z,97447.34
2022-11-21T02:46:18.570Z,97447.22
2022-11-21T02:48:46.639Z,97443.25
2022-11-21T02:51:13.536Z,97446.59
2022-11-21T02:53:40.557Z,97434.16
2022-11-21T02:56:07.600Z,97438.13
2022-11-21T02:58:34.849Z,97438.13
2022-11-21T03:01:01.855Z,97436.44
2022-11-21T03:03:28.879Z,97430.06
2022-11-21T03:05:56.760Z,97436.06
2022-11-21T03:08:23.933Z,97433.63
2022-11-21T03:10:50.916Z,97431.84
2022-11-21T03:13:17.856Z,97423.47
2022-11-21T03:15:44.763Z,97424.84
2022-11-21T03:18:11.672Z,97417.00
2022-11-21T03:20:38.688Z,97414.06
2022-11-21T03:23:05.666Z,97414.06
2022-11-21T03:25:32.716Z,97410.06
2022-11-21T03:27:59.614Z,97413.13
2022-11-21T03:30:27.754Z,97406.22
2022-11-21T03:32:58.560Z,97405.91
2022-11-21T03:35:25.983Z,97406.84
2022-11-21T03:37:53.086Z,97412.59
2022-11-21T03:40:20.259Z,97407.06
2022-11-21T03:42:47.229Z,97402.44
2022-11-21T03:45:14.252Z,97400.78
2022-11-21T03:47:41.477Z,97403.28
2022-11-21T03:50:08.795Z,97405.69
2022-11-21T03:52:35.774Z,97403.41
2022-11-21T03:55:02.711Z,97393.78
2022-11-21T03:57:29.643Z,97402.22
2022-11-21T03:59:56.664Z,97403.19
2022-11-21T04:02:23.698Z,97395.75
2022-11-21T04:04:50.652Z,97396.81
2022-11-21T04:07:17.598Z,97399.94
2022-11-21T04:09:44.531Z,97389.66
2022-11-21T04:12:11.488Z,97390.72
2022-11-21T04:14:38.513Z,97395.53
2022-11-21T04:17:05.738Z,97389.03
2022-11-21T04:19:32.657Z,97398.34
2022-11-21T04:22:02.519Z,97396.78
2022-11-21T04:24:29.688Z,97390.91
2022-11-21T04:26:56.951Z,97385.69
2022-11-21T04:29:24.031Z,97381.81
2022-11-21T04:31:50.969Z,97375.31
2022-11-21T04:34:17.890Z,97379.06
2022-11-21T04:36:44.861Z,97369.25
2022-11-21T04:39:11.845Z,97371.03
2022-11-21T04:41:38.752Z,97366.41
2022-11-21T04:44:05.966Z,97372.03
2022-11-21T04:46:32.976Z,97368.41
2022-11-21T04:48:59.919Z,97379.06
2022-11-21T04:51:26.815Z,97372.19
2022-11-21T04:53:53.795Z,97377.72
2022-11-21T04:56:20.737Z,97372.81
2022-11-21T04:58:47.693Z,97373.31
2022-11-21T05:01:14.609Z,97378.47
2022-11-21T05:03:41.632Z,97372.91
2022-11-21T05:06:08.650Z,97389.94
2022-11-21T05:08:35.643Z,97385.13
2022-11-21T05:11:20.974Z,97387.94
2022-11-21T05:13:47.891Z,97391.78
2022-11-21T05:16:14.850Z,97392.66
2022-11-21T05:18:41.790Z,97393.16
2022-11-21T05:21:08.752Z,97389.63
2022-11-21T05:23:35.684Z,97394.22
2022-11-21T05:26:02.650Z,97396.97
2022-11-21T05:28:29.577Z,97400.41
2022-11-21T05:30:56.527Z,97407.22
2022-11-21T05:33:23.476Z,97404.09
2022-11-21T05:35:50.459Z,97390.69
2022-11-21T05:38:17.391Z,97401.16
2022-11-21T05:40:44.372Z,97405.44
2022-11-21T05:43:31.161Z,97402.50
2022-11-21T05:45:58.334Z,97413.59
2022-11-21T05:48:25.319Z,97420.16
2022-11-21T05:50:52.400Z,97426.22
2022-11-21T05:53:20.665Z,97426.88
2022-11-21T05:55:47.976Z,97421.41
2022-11-21T05:58:15.172Z,97416.41
2022-11-21T06:00:42.333Z,97420.72
2022-11-21T06:03:30.911Z,97417.88
2022-11-21T06:06:10.638Z,97417.66
2022-11-21T06:08:47.439Z,97419.34
2022-11-21T06:11:16.818Z,97413.97
2022-11-21T06:13:44.491Z,97408.88
2022-11-21T06:16:17.138Z,97403.50
2022-11-21T06:18:47.590Z,97405.28
2022-11-21T06:21:18.403Z,97406.63
2022-11-21T06:23:46.367Z,97411.53
2022-11-21T06:26:16.539Z,97405.78
2022-11-21T06:28:45.582Z,97403.50
2022-11-21T06:31:16.638Z,97403.03
2022-11-21T06:33:44.635Z,97412.69
2022-11-21T06:36:14.871Z,97412.56
2022-11-21T06:38:43.485Z,97403.03
2022-11-21T06:41:17.101Z,97404.19
2022-11-21T06:43:44.784Z,97412.69
2022-11-21T06:46:13.631Z,97416.53
2022-11-21T06:48:41.653Z,97424.47
2022-11-21T06:51:20.043Z,97423.25
2022-11-21T06:53:48.648Z,97424.94
2022-11-21T06:56:15.988Z,97425.88
2022-11-21T06:58:42.943Z,97429.31
2022-11-21T07:01:10.879Z,97434.34
2022-11-21T07:03:37.889Z,97427.66
2022-11-21T07:06:05.816Z,97431.44
2022-11-21T07:08:36.027Z,97427.97
2022-11-21T07:11:25.269Z,97425.03
2022-11-21T07:13:53.244Z,97431.84
2022-11-21T07:16:20.181Z,97435.28
2022-11-21T07:18:47.120Z,97439.88
2022-11-21T07:21:14.532Z,97429.41
2022-11-21T07:23:41.573Z,97432.34
2022-11-21T07:26:10.719Z,97422.00
2022-11-21T07:28:38.075Z,97415.72
2022-11-21T07:31:11.726Z,97414.16
2022-11-21T07:33:40.139Z,97414.88
2022-11-21T07:36:07.289Z,97416.38
2022-11-21T07:38:34.417Z,97414.25
2022-11-21T07:41:01.437Z,97412.31
2022-11-21T07:43:28.324Z,97416.25
2022-11-21T07:45:56.462Z,97418.31
2022-11-21T07:48:23.419Z,97417.66
2022-11-21T07:50:50.510Z,97418.69
2022-11-21T07:53:17.454Z,97419.16
2022-11-21T07:55:44.509Z,97422.47
2022-11-21T07:58:15.723Z,97421.78
2022-11-21T08:00:43.307Z,97418.34
2022-11-21T08:03:12.381Z,97416.88
2022-11-21T08:05:43.429Z,97421.47
2022-11-21T08:08:12.870Z,97426.59
2022-11-21T08:10:45.461Z,97429.28
2022-11-21T08:13:13.788Z,97423.19
2022-11-21T08:15:41.377Z,97428.78
2022-11-21T08:18:19.175Z,97418.16
2022-11-21T08:20:46.589Z,97415.63
2022-11-21T08:23:13.831Z,97422.91
2022-11-21T08:25:42.376Z,97420.28
2022-11-21T08:28:11.851Z,97418.25
2022-11-21T08:30:40.686Z,97424.47
2022-11-21T08:33:08.432Z,97417.91
2022-11-21T08:35:38.262Z,97413.59
2022-11-21T08:38:05.744Z,97418.69
2022-11-21T08:40:33.496Z,97417.94
2022-11-21T08:43:07.677Z,97414.38
2022-11-21T08:45:37.069Z,97408.22
2022-11-21T08:48:12.542Z,97407.28
2022-11-21T08:50:39.702Z,97405.69
2022-11-21T08:53:06.643Z,97412.06
2022-11-21T08:55:33.737Z,97415.63
2022-11-21T08:58:00.723Z,97412.06
2022-11-21T09:00:28.237Z,97418.72
2022-11-21T09:02:55.579Z,97405.84
2022-11-21T09:05:22.917Z,97416.66
2022-11-21T09:07:57.403Z,97415.41
2022-11-21T09:10:26.013Z,97410.47
2022-11-21T09:12:53.518Z,97409.75
2022-11-21T09:15:39.751Z,97409.00
2022-11-21T09:18:08.105Z,97422.44
2022-11-21T09:20:43.366Z,97417.44
2022-11-21T09:23:13.070Z,97419.59
2022-11-21T09:25:40.520Z,97415.53
2022-11-21T09:28:09.369Z,97407.59
2022-11-21T09:30:37.435Z,97410.66
2022-11-21T09:33:06.957Z,97394.53
2022-11-21T09:35:34.531Z,97407.91
2022-11-21T09:38:02.626Z,97402.22
2022-11-21T09:40:31.124Z,97403.78
2022-11-21T09:43:17.011Z,97404.72
2022-11-21T09:45:50.025Z,97404.66
2022-11-21T09:48:32.904Z,97406.53
2022-11-21T09:51:05.124Z,97406.84
2022-11-21T09:53:35.442Z,97402.09
2022-11-21T09:56:11.518Z,97405.66
2022-11-21T09:58:51.593Z,97408.88
2022-11-21T10:01:19.087Z,97401.81
2022-11-21T10:03:52.170Z,97400.69
2022-11-21T10:06:43.887Z,97391.59
2022-11-21T10:09:35.992Z,97393.03
2022-11-21T10:12:39.837Z,97387.28
2022-11-21T10:15:19.268Z,97381.28
2022-11-21T10:18:08.328Z,97374.34
2022-11-21T10:20:47.685Z,97375.31
2022-11-21T10:23:40.119Z,97364.88
2022-11-21T10:26:21.083Z,97365.00
2022-11-21T10:28:59.610Z,97354.78
2022-11-21T10:31:30.970Z,97352.03
2022-11-21T10:33:59.850Z,97350.38
2022-11-21T10:36:38.879Z,97342.38
2022-11-21T10:39:19.027Z,97333.53
2022-11-21T10:41:56.783Z,97320.84
2022-11-21T10:45:09.406Z,97331.41
2022-11-21T10:47:39.942Z,97322.16
2022-11-21T10:50:09.808Z,97326.81
2022-11-21T10:52:40.547Z,97319.25
2022-11-21T10:55:11.083Z,97314.19
2022-11-21T10:57:40.686Z,97306.03
2022-11-21T11:00:14.122Z,97303.72
2022-11-21T11:02:43.203Z,97315.38
2022-11-21T11:05:16.725Z,97313.47
2022-11-21T11:07:59.319Z,97307.31
2022-11-21T11:10:28.133Z,97299.31
2022-11-21T11:13:44.399Z,97293.34
2022-11-21T11:16:15.283Z,97289.97
2022-11-21T11:18:50.954Z,97281.13
2022-11-21T11:21:24.775Z,97271.53
2022-11-21T11:23:53.894Z,97265.16
2022-11-21T11:26:28.009Z,97259.88
2022-11-21T11:29:09.599Z,97257.31
2022-11-21T11:32:00.428Z,97251.09
2022-11-21T11:34:40.328Z,97240.50
2022-11-21T11:37:27.442Z,97240.66
2022-11-21T11:40:00.297Z,97234.16
2022-11-21T11:43:06.169Z,97230.28
2022-11-21T11:46:18.724Z,97219.13
2022-11-21T11:49:17.332Z,97202.72
2022-11-21T11:51:47.032Z,97204.09
2022-11-21T11:54:18.793Z,97195.28
2022-11-21T11:56:47.182Z,97195.28
2022-11-21T11:59:31.605Z,97195.91
2022-11-21T12:02:12.176Z,97193.00
2022-11-21T12:04:58.847Z,97189.97
2022-11-21T12:11:02.858Z,97167.28
2022-11-21T12:13:30.947Z,97158.56
2022-11-21T12:16:08.537Z,97149.19
2022-11-21T12:18:56.294Z,97162.09
2022-11-21T12:21:23.989Z,97149.34
2022-11-21T12:23:56.345Z,97149.31
2022-11-21T12:26:29.829Z,97150.75
2022-11-21T12:29:34.866Z,97138.75
2022-11-21T12:32:30.375Z,97143.38
2022-11-21T12:35:06.501Z,97150.00
2022-11-21T12:37:33.811Z,97152.19
2022-11-21T12:40:22.385Z,97140.19
2022-11-21T12:43:29.244Z,97144.28
2022-11-21T12:46:07.979Z,97133.09
2022-11-21T12:49:28.982Z,97131.38
2022-11-21T12:52:21.357Z,97135.63
2022-11-21T12:54:56.558Z,97128.13
2022-11-21T12:57:42.806Z,97119.28
2022-11-21T13:00:27.159Z,97106.38
2022-11-21T13:03:18.592Z,97109.56
2022-11-21T13:05:50.135Z,97112.91
2022-11-21T13:08:24.687Z,97106.81
2022-11-21T13:11:30.178Z,97087.81
2022-11-21T13:14:06.893Z,97075.28
2022-11-21T13:16:38.011Z,97081.84
2022-11-21T13:19:16.840Z,97070.97
2022-11-21T13:21:47.928Z,97053.09
2022-11-21T13:24:47.556Z,97056.44
2022-11-21T13:27:39.209Z,97048.69
2022-11-21T13:30:12.526Z,97051.75
2022-11-21T13:32:46.129Z,97039.81
2022-11-21T13:35:19.379Z,97039.34
2022-11-21T13:37:54.107Z,97036.09
2022-11-21T13:40:29.857Z,97031.72
2022-11-21T13:45:59.927Z,97019.16
2022-11-21T13:48:36.554Z,97010.97
2022-11-21T13:51:12.407Z,97016.28
2022-11-21T13:53:57.590Z,97019.16
2022-11-21T13:57:04.501Z,97005.25
2022-11-21T13:59:50.788Z,97002.06
2022-11-21T14:02:51.221Z,96992.81
2022-11-21T14:05:37.221Z,96987.94
2022-11-21T14:08:33.998Z,96986.59
2022-11-21T14:11:39.311Z,96988.84
2022-11-21T14:14:07.590Z,96982.78
2022-11-21T14:16:43.718Z,96973.91
2022-11-21T14:19:18.055Z,96970.88
2022-11-21T14:21:46.923Z,96954.16
2022-11-21T14:24:19.375Z,96956.22
2022-11-21T14:26:49.376Z,96942.25
2022-11-21T14:29:27.566Z,96937.69
2022-11-21T14:31:55.852Z,96946.69
2022-11-21T14:34:31.651Z,96942.56
2022-11-21T14:37:05.043Z,96946.28
2022-11-21T14:39:39.935Z,96934.38
2022-11-21T14:42:16.475Z,96929.25
2022-11-21T14:44:44.040Z,96927.03
2022-11-21T14:47:26.368Z,96939.28
2022-11-21T14:50:01.048Z,96924.84
2022-11-21T14:52:33.255Z,96917.81
2022-11-21T14:57:50.033Z,96904.59
2022-11-21T15:00:51.466Z,96905.16
2022-11-21T15:03:23.715Z,96898.88
2022-11-21T15:06:04.463Z,96885.59
2022-11-21T15:11:23.938Z,96867.50
2022-11-21T15:16:42.747Z,96853.31
2022-11-21T15:19:10.846Z,96837.31
2022-11-21T15:21:43.423Z,96836.31
2022-11-21T15:24:32.339Z,96824.69
2022-11-21T15:27:00.904Z,96808.50
2022-11-21T15:29:30.359Z,96802.19
2022-11-21T15:32:16.547Z,96799.34
2022-11-21T15:34:44.301Z,96798.59
2022-11-21T15:37:18.648Z,96796.53
2022-11-21T15:39:48.297Z,96784.41
2022-11-21T15:42:29.121Z,96769.72
2022-11-21T15:45:04.510Z,96773.16
2022-11-21T15:47:31.835Z,96776.66
2022-11-21T15:49:59.198Z,96769.19
2022-11-21T15:52:26.517Z,96760.44
2022-11-21T15:54:53.893Z,96754.34
2022-11-21T15:57:22.187Z,96754.84
2022-11-21T15:59:49.934Z,96750.09
2022-11-21T16:02:17.311Z,96738.00
2022-11-21T16:04:45.517Z,96731.25
2022-11-21T16:07:12.954Z,96720.66
2022-11-21T16:09:42.029Z,96717.59
2022-11-21T16:12:10.014Z,96710.31
2022-11-21T16:14:37.363Z,96715.00
2022-11-21T16:17:04.639Z,96703.66
2022-11-21T16:19:32.187Z,96695.81
2022-11-21T16:21:59.651Z,96699.19
2022-11-21T16:24:26.948Z,96696.56
2022-11-21T16:26:55.428Z,96705.44
2022-11-21T16:29:22.876Z,96698.22
2022-11-21T16:31:55.820Z,96689.09
2022-11-21T16:34:23.122Z,96684.81
2022-11-21T16:36:50.700Z,96679.66
2022-11-21T16:39:29.646Z,96672.19
2022-11-21T16:41:56.984Z,96660.69
2022-11-21T16:44:24.340Z,96652.72
2022-11-21T16:46:54.251Z,96645.63
2022-11-21T16:49:21.795Z,96641.19
2022-11-21T16:51:49.104Z,96645.72
2022-11-21T16:54:16.439Z,96628.84
2022-11-21T16:56:43.983Z,96626.28
2022-11-21T16:59:11.369Z,96616.91
2022-11-21T17:01:38.842Z,96610.84
2022-11-21T17:04:06.341Z,96611.97
2022-11-21T17:06:33.904Z,96598.63
2022-11-21T17:09:04.611Z,96591.81
2022-11-21T17:11:32.317Z,96607.41
2022-11-21T17:14:01.340Z,96612.69
2022-11-21T17:16:29.525Z,96626.22
2022-11-21T17:18:58.616Z,96628.72
2022-11-21T17:21:26.985Z,96621.88
2022-11-21T17:23:54.384Z,96620.53
2022-11-21T17:26:24.063Z,96616.09
2022-11-21T17:28:59.681Z,96617.47
2022-11-21T17:31:27.521Z,96615.56
2022-11-21T17:33:57.136Z,96607.88
2022-11-21T17:36:27.308Z,96600.16
2022-11-21T17:38:54.812Z,96594.53
2022-11-21T17:41:23.742Z,96596.63
2022-11-21T17:43:55.931Z,96592.59
2022-11-21T17:46:25.253Z,96594.06
2022-11-21T17:48:57.166Z,96593.94
2022-11-21T17:51:32.278Z,96586.03
2022-11-21T17:54:00.732Z,96575.78
2022-11-21T17:56:32.727Z,96577.31
2022-11-21T17:59:00.033Z,96570.97
2022-11-21T18:01:27.767Z,96572.19
2022-11-21T18:04:00.383Z,96588.28
2022-11-21T18:06:33.154Z,96565.28
2022-11-21T18:09:00.115Z,96561.31
2022-11-21T18:11:39.168Z,96533.34
2022-11-21T18:14:08.644Z,96530.19
2022-11-21T18:16:36.069Z,96540.47
2022-11-21T18:19:03.178Z,96557.84
2022-11-21T18:21:32.538Z,96554.75
2022-11-21T18:24:00.249Z,96555.00
2022-11-21T18:26:30.781Z,96557.22
2022-11-21T18:31:50.247Z,96553.03
2022-11-21T18:34:17.194Z,96544.59
2022-11-21T18:36:44.264Z,96532.69
2022-11-21T18:39:15.295Z,96522.50
2022-11-21T18:41:43.170Z,96530.25
2022-11-21T18:44:11.998Z,96536.44
2022-11-21T18:46:40.582Z,96537.19
2022-11-21T18:49:08.461Z,96538.72
2022-11-21T18:51:36.843Z,96524.88
2022-11-21T18:54:08.048Z,96508.97
2022-11-21T18:56:37.436Z,96501.25
2022-11-21T18:59:08.236Z,96502.94
2022-11-21T19:01:37.585Z,96501.84
2022-11-21T19:04:05.316Z,96507.03
2022-11-21T19:06:32.665Z,96505.44
2022-11-21T19:08:59.900Z,96501.94
2022-11-21T19:11:29.320Z,96501.28
2022-11-21T19:13:57.904Z,96501.16
2022-11-21T19:16:27.435Z,96499.22
2022-11-21T19:21:42.811Z,96514.22
2022-11-21T19:24:14.452Z,96522.31
2022-11-21T19:26:42.140Z,96522.72
2022-11-21T19:29:10.507Z,96510.88
2022-11-21T19:31:44.100Z,96513.06
2022-11-21T19:34:14.420Z,96515.44
2022-11-21T19:36:42.233Z,96509.56
2022-11-21T19:39:09.983Z,96511.69
2022-11-21T19:41:37.220Z,96500.66
2022-11-21T19:44:04.388Z,96509.06
2022-11-21T19:46:38.111Z,96502.31
2022-11-21T19:49:07.217Z,96499.41
2022-11-21T19:51:40.524Z,96501.00
2022-11-21T19:54:09.576Z,96481.19
2022-11-21T19:56:37.126Z,96482.16
2022-11-21T19:59:04.545Z,96472.63
2022-11-21T20:01:34.308Z,96466.03
2022-11-21T20:04:03.948Z,96463.53
2022-11-21T20:06:42.237Z,96463.91
2022-11-21T20:09:12.722Z,96467.13
2022-11-21T20:11:42.202Z,96465.59
2022-11-21T20:14:09.199Z,96462.41
2022-11-21T20:16:40.035Z,96462.81
2022-11-21T20:19:10.695Z,96459.56
2022-11-21T20:21:38.713Z,96466.06
2022-11-21T20:24:06.483Z,96466.47
2022-11-21T20:26:34.244Z,96469.38
2022-11-21T20:29:01.580Z,96474.06
2022-11-21T20:31:35.177Z,96468.00
2022-11-21T20:34:08.574Z,96459.72
2022-11-21T20:36:36.769Z,96466.06
2022-11-21T20:39:15.575Z,96468.28
2022-11-21T20:41:42.720Z,96464.78
2022-11-21T20:47:07.253Z,96456.88
2022-11-21T20:49:35.250Z,96461.88
2022-11-21T20:53:43.948Z,96451.41
2022-11-21T20:54:49.518Z,96453.59
2022-11-21T20:57:16.484Z,96457.03
2022-11-21T20:59:43.892Z,96447.47
2022-11-21T21:02:12.321Z,96461.72
2022-11-21T21:04:39.719Z,96464.91
2022-11-21T21:07:06.717Z,96464.53
2022-11-21T21:09:33.696Z,96470.41
2022-11-21T21:12:00.597Z,96477.59
2022-11-21T21:14:27.531Z,96473.00
2022-11-21T21:16:54.509Z,96475.38
2022-11-21T21:19:21.882Z,96467.66
2022-11-21T21:21:48.942Z,96468.19
2022-11-21T21:24:16.285Z,96471.38
2022-11-21T21:26:46.511Z,96461.47
2022-11-21T21:29:20.724Z,96463.78
2022-11-21T21:31:51.710Z,96456.47
2022-11-21T21:34:21.348Z,96459.25
2022-11-21T21:36:48.867Z,96468.91
2022-11-21T21:39:15.963Z,96471.25
2022-11-21T21:41:46.046Z,96474.03
2022-11-21T21:44:13.942Z,96463.94
2022-11-21T21:46:40.960Z,96461.03
2022-11-21T21:49:08.006Z,96452.06
2022-11-21T21:51:37.102Z,96454.44
2022-11-21T21:54:04.664Z,96449.59
2022-11-21T21:56:31.860Z,96421.94
2022-11-21T21:58:59.756Z,96417.66
2022-11-21T22:01:32.059Z,96441.03
2022-11-21T22:04:03.023Z,96430.25
2022-11-21T22:06:33.042Z,96420.34
2022-11-21T22:09:00.270Z,96424.09
2022-11-21T22:11:31.399Z,96430.06
2022-11-21T22:14:01.913Z,96396.72
2022-11-21T22:16:29.783Z,96419.94
2022-11-21T22:18:57.439Z,96409.16
2022-11-21T22:21:34.302Z,96412.09
2022-11-21T22:26:51.903Z,96435.66
2022-11-21T22:29:18.935Z,96428.63
2022-11-21T22:31:45.906Z,96422.44
2022-11-21T22:34:16.062Z,96429.06
2022-11-21T22:36:43.409Z,96432.50
2022-11-21T22:39:10.472Z,96421.06
2022-11-21T22:41:37.439Z,96430.16
2022-11-21T22:44:04.654Z,96427.84
2022-11-21T22:46:32.149Z,96416.34
2022-11-21T22:48:59.387Z,96425.03
2022-11-21T22:51:29.517Z,96442.56
2022-11-21T22:53:57.218Z,96444.88
2022-11-21T22:56:24.954Z,96446.69
2022-11-21T22:58:52.675Z,96456.34
2022-11-21T23:01:22.499Z,96457.19
2022-11-21T23:03:49.951Z,96460.66
2022-11-21T23:06:21.320Z,96454.19
2022-11-21T23:08:48.968Z,96451.69
2022-11-21T23:11:26.033Z,96447.84
2022-11-21T23:13:54.290Z,96432.66
2022-11-21T23:16:21.824Z,96436.66
2022-11-21T23:18:52.270Z,96437.22
2022-11-21T23:21:19.262Z,96439.03
2022-11-21T23:23:46.297Z,96439.56
2022-11-21T23:26:13.307Z,96433.91
2022-11-21T23:28:40.276Z,96426.88
2022-11-21T23:31:07.220Z,96427.97
2022-11-21T23:33:34.142Z,96423.03
2022-11-21T23:36:01.175Z,96412.34
2022-11-21T23:38:28.193Z,96410.34
2022-11-21T23:40:55.284Z,96401.09
2022-11-21T23:43:22.238Z,96407.44
2022-11-21T23:45:53.610Z,96396.94
2022-11-21T23:48:21.897Z,96392.81
2022-11-21T23:50:51.298Z,96387.03
2022-11-21T23:53:19.533Z,96377.78
2022-11-21T23:55:47.371Z,96373.50
2022-11-21T23:58:14.593Z,96370.59
